createdAt,value
2023-03-11T00:00:19.792Z,8.53
2023-03-11T00:02:53.672Z,8.50
2023-03-11T00:05:06.695Z,8.46
2023-03-11T00:07:19.653Z,8.43
2023-03-11T00:09:32.326Z,8.40
2023-03-11T00:11:46.633Z,8.40
2023-03-11T00:13:59.436Z,8.40
2023-03-11T00:16:13.166Z,8.40
2023-03-11T00:18:29.126Z,8.38
2023-03-11T00:20:44.275Z,8.37
2023-03-11T00:22:57.889Z,8.35
2023-03-11T00:25:13.489Z,8.34
2023-03-11T00:27:26.415Z,8.33
2023-03-11T00:29:39.831Z,8.32
2023-03-11T00:31:52.823Z,8.29
2023-03-11T00:34:07.181Z,8.25
2023-03-11T00:36:32.615Z,8.23
2023-03-11T00:38:45.396Z,8.19
2023-03-11T00:40:58.657Z,8.17
2023-03-11T00:43:11.540Z,8.16
2023-03-11T00:45:24.825Z,8.14
2023-03-11T00:47:38.262Z,8.15
2023-03-11T00:49:52.263Z,8.16
2023-03-11T00:52:07.324Z,8.20
2023-03-11T00:54:19.982Z,8.23
2023-03-11T00:56:32.756Z,8.24
2023-03-11T00:58:47.002Z,8.28
2023-03-11T01:00:59.788Z,8.28
2023-03-11T01:03:13.391Z,8.22
2023-03-11T01:05:29.034Z,8.17
2023-03-11T01:07:41.994Z,8.15
2023-03-11T01:09:55.188Z,8.12
2023-03-11T01:12:08.158Z,8.12
2023-03-11T01:14:24.405Z,8.11
2023-03-11T01:16:38.036Z,8.07
2023-03-11T01:18:51.828Z,8.01
2023-03-11T01:21:05.123Z,7.97
2023-03-11T01:23:20.067Z,7.92
2023-03-11T01:25:33.798Z,7.90
2023-03-11T01:27:47.115Z,7.87
2023-03-11T01:30:03.108Z,7.84
2023-03-11T01:32:16.768Z,7.84
2023-03-11T01:34:31.940Z,7.82
2023-03-11T01:36:45.229Z,7.82
2023-03-11T01:38:58.411Z,7.82
2023-03-11T01:41:12.427Z,7.81
2023-03-11T01:43:50.819Z,7.78
2023-03-11T01:46:19.488Z,7.74
2023-03-11T01:48:32.829Z,7.72
2023-03-11T01:50:51.902Z,7.72
2023-03-11T01:53:04.901Z,7.71
2023-03-11T01:55:20.484Z,7.72
2023-03-11T01:57:34.436Z,7.72
2023-03-11T01:59:52.235Z,7.73
2023-03-11T02:02:13.345Z,7.77
2023-03-11T02:04:29.703Z,7.77
2023-03-11T02:06:42.975Z,7.77
2023-03-11T02:08:56.943Z,7.78
2023-03-11T02:11:12.402Z,7.78
2023-03-11T02:13:26.118Z,7.77
2023-03-11T02:15:41.046Z,7.76
2023-03-11T02:17:54.772Z,7.74
2023-03-11T02:20:20.293Z,7.74
2023-03-11T02:22:34.634Z,7.76
2023-03-11T02:24:57.709Z,7.74
2023-03-11T02:27:13.934Z,7.73
2023-03-11T02:29:28.794Z,7.71
2023-03-11T02:31:44.938Z,7.71
2023-03-11T02:34:01.230Z,7.68
2023-03-11T02:36:36.658Z,7.67
2023-03-11T02:38:49.687Z,7.65
2023-03-11T02:41:05.057Z,7.64
2023-03-11T02:43:21.344Z,7.62
2023-03-11T02:45:38.282Z,7.63
2023-03-11T02:47:51.639Z,7.63
2023-03-11T02:50:04.408Z,7.65
2023-03-11T02:52:17.064Z,7.64
2023-03-11T02:54:29.981Z,7.63
2023-03-11T02:56:42.747Z,7.63
2023-03-11T02:58:55.230Z,7.62
2023-03-11T03:01:08.123Z,7.61
2023-03-11T03:03:20.637Z,7.59
2023-03-11T03:05:33.858Z,7.59
2023-03-11T03:07:47.202Z,7.56
2023-03-11T03:10:00.032Z,7.52
2023-03-11T03:12:14.694Z,7.48
2023-03-11T03:14:29.395Z,7.45
2023-03-11T03:16:42.121Z,7.44
2023-03-11T03:18:55.109Z,7.41
2023-03-11T03:21:08.231Z,7.36
2023-03-11T03:23:21.021Z,7.31
2023-03-11T03:25:37.051Z,7.28
2023-03-11T03:27:51.731Z,7.26
2023-03-11T03:30:04.437Z,7.22
2023-03-11T03:32:18.270Z,7.19
2023-03-11T03:34:31.397Z,7.16
2023-03-11T03:36:44.416Z,7.14
2023-03-11T03:39:00.632Z,7.13
2023-03-11T03:41:19.002Z,7.13
2023-03-11T03:43:31.571Z,7.13
2023-03-11T03:45:44.334Z,7.11
2023-03-11T03:47:57.404Z,7.11
2023-03-11T03:50:12.397Z,7.10
2023-03-11T03:52:26.459Z,7.08
2023-03-11T03:54:39.505Z,7.07
2023-03-11T03:56:53.029Z,7.06
2023-03-11T03:59:06.289Z,7.05
2023-03-11T04:01:23.789Z,7.05
2023-03-11T04:03:37.664Z,7.04
2023-03-11T04:15:30.411Z,7.04
2023-03-11T04:17:56.491Z,7.03
2023-03-11T04:20:10.791Z,7.03
2023-03-11T04:22:23.362Z,7.03
2023-03-11T04:24:36.802Z,7.02
2023-03-11T04:26:49.486Z,7.02
2023-03-11T04:29:03.279Z,7.02
2023-03-11T04:31:18.428Z,7.04
2023-03-11T04:33:31.060Z,7.05
2023-03-11T04:35:45.748Z,7.06
2023-03-11T04:37:59.271Z,7.06
2023-03-11T04:40:16.138Z,7.07
2023-03-11T04:42:30.366Z,7.09
2023-03-11T04:44:43.229Z,7.10
2023-03-11T04:46:55.967Z,7.11
2023-03-11T04:49:09.184Z,7.12
2023-03-11T04:51:21.955Z,7.11
2023-03-11T04:53:34.624Z,7.10
2023-03-11T04:55:48.370Z,7.10
2023-03-11T04:58:00.822Z,7.11
2023-03-11T05:00:21.126Z,7.11
2023-03-11T05:02:34.930Z,7.09
2023-03-11T05:04:48.535Z,7.08
2023-03-11T05:07:01.270Z,7.08
2023-03-11T05:09:13.690Z,7.08
2023-03-11T05:11:26.387Z,7.10
2023-03-11T05:13:38.870Z,7.12
2023-03-11T05:15:51.540Z,7.11
2023-03-11T05:18:04.153Z,7.12
2023-03-11T05:20:20.799Z,7.11
2023-03-11T05:22:34.341Z,7.13
2023-03-11T05:24:47.983Z,7.15
2023-03-11T05:27:01.004Z,7.16
2023-03-11T05:30:14.354Z,7.16
2023-03-11T05:38:49.968Z,7.18
2023-03-11T05:41:49.421Z,7.15
2023-03-11T05:44:41.759Z,7.12
2023-03-11T05:47:25.285Z,7.16
2023-03-11T05:49:43.965Z,7.14
2023-03-11T05:51:58.790Z,7.14
2023-03-11T05:57:19.685Z,7.09
2023-03-11T05:59:33.513Z,7.08
2023-03-11T06:01:51.209Z,7.08
2023-03-11T06:04:07.293Z,7.06
2023-03-11T06:06:33.136Z,7.03
2023-03-11T06:09:38.013Z,7.02
2023-03-11T06:11:53.689Z,7.02
2023-03-11T06:14:14.715Z,6.97
2023-03-11T06:16:29.996Z,6.94
2023-03-11T06:18:45.483Z,6.94
2023-03-11T06:21:04.458Z,6.93
2023-03-11T06:23:18.073Z,6.94
2023-03-11T06:25:58.194Z,6.94
2023-03-11T06:28:11.908Z,6.92
2023-03-11T06:30:27.239Z,6.90
2023-03-11T06:33:02.576Z,6.89
2023-03-11T06:35:36.610Z,6.88
2023-03-11T06:38:48.312Z,6.87
2023-03-11T06:41:19.626Z,6.86
2023-03-11T06:43:52.085Z,6.85
2023-03-11T06:46:32.863Z,6.86
2023-03-11T06:49:46.331Z,6.89
2023-03-11T06:52:09.935Z,6.89
2023-03-11T06:54:42.708Z,6.87
2023-03-11T06:57:15.989Z,6.84
2023-03-11T06:59:39.026Z,6.79
2023-03-11T07:01:56.495Z,6.78
2023-03-11T07:04:15.940Z,6.79
2023-03-11T07:07:21.529Z,6.79
2023-03-11T07:10:21.043Z,6.77
2023-03-11T07:13:24.915Z,6.79
2023-03-11T07:16:19.386Z,6.76
2023-03-11T07:22:10.130Z,6.75
2023-03-11T07:25:04.366Z,6.72
2023-03-11T07:27:36.337Z,6.73
2023-03-11T07:30:11.294Z,6.71
2023-03-11T07:32:35.489Z,6.69
2023-03-11T07:34:55.395Z,6.70
2023-03-11T07:37:19.541Z,6.70
2023-03-11T07:39:42.779Z,6.70
2023-03-11T07:42:06.932Z,6.71
2023-03-11T07:44:39.904Z,6.71
2023-03-11T07:47:08.105Z,6.75
2023-03-11T07:49:29.988Z,6.76
2023-03-11T07:51:56.079Z,6.75
2023-03-11T07:54:28.926Z,6.75
2023-03-11T07:56:55.825Z,6.71
2023-03-11T07:59:29.196Z,6.69
2023-03-11T08:02:02.280Z,6.67
2023-03-11T08:04:36.361Z,6.67
2023-03-11T08:07:10.430Z,6.67
2023-03-11T08:09:44.108Z,6.67
2023-03-11T08:11:59.956Z,6.67
2023-03-11T08:14:23.480Z,6.67
2023-03-11T08:16:49.765Z,6.68
2023-03-11T08:19:15.800Z,6.68
2023-03-11T08:21:48.639Z,6.67
2023-03-11T08:24:14.302Z,6.65
2023-03-11T08:26:47.286Z,6.63
2023-03-11T08:29:10.136Z,6.62
2023-03-11T08:31:34.258Z,6.62
2023-03-11T08:33:47.774Z,6.63
2023-03-11T08:36:03.506Z,6.63
2023-03-11T08:38:19.656Z,6.64
2023-03-11T08:40:52.719Z,6.64
2023-03-11T08:43:08.979Z,6.64
2023-03-11T08:45:42.587Z,6.63
2023-03-11T08:48:05.749Z,6.64
2023-03-11T08:50:52.889Z,6.64
2023-03-11T08:53:17.771Z,6.62
2023-03-11T08:55:34.963Z,6.62
2023-03-11T08:57:57.944Z,6.62
2023-03-11T09:00:16.019Z,6.59
2023-03-11T09:02:48.794Z,6.56
2023-03-11T09:05:16.444Z,6.55
2023-03-11T09:07:29.201Z,6.53
2023-03-11T09:09:41.884Z,6.53
2023-03-11T09:11:55.484Z,6.52
2023-03-11T09:14:19.371Z,6.52
2023-03-11T09:16:52.632Z,6.51
2023-03-11T09:19:15.303Z,6.51
2023-03-11T09:21:31.181Z,6.53
2023-03-11T09:24:05.377Z,6.53
2023-03-11T09:26:31.300Z,6.53
2023-03-11T09:29:04.193Z,6.51
2023-03-11T09:31:17.180Z,6.51
2023-03-11T09:33:51.192Z,6.49
2023-03-11T09:36:16.848Z,6.47
2023-03-11T09:38:41.181Z,6.45
2023-03-11T09:41:22.018Z,6.43
2023-03-11T09:43:57.022Z,6.42
2023-03-11T09:46:49.818Z,6.42
2023-03-11T09:49:10.070Z,6.40
2023-03-11T09:51:36.206Z,6.40
2023-03-11T09:53:50.443Z,6.40
2023-03-11T09:56:26.105Z,6.39
2023-03-11T09:59:03.456Z,6.37
2023-03-11T10:01:34.325Z,6.37
2023-03-11T10:03:59.805Z,6.37
2023-03-11T10:06:27.567Z,6.35
2023-03-11T10:09:10.938Z,6.32
2023-03-11T10:11:52.498Z,6.31
2023-03-11T10:14:31.515Z,6.31
2023-03-11T10:16:58.806Z,6.31
2023-03-11T10:19:43.724Z,6.31
2023-03-11T10:22:16.084Z,6.28
2023-03-11T10:25:00.345Z,6.28
2023-03-11T10:27:20.353Z,6.25
2023-03-11T10:30:02.578Z,6.23
2023-03-11T10:32:44.344Z,6.21
2023-03-11T10:35:18.811Z,6.18
2023-03-11T10:37:48.772Z,6.15
2023-03-11T10:40:07.581Z,6.15
2023-03-11T10:42:51.945Z,6.14
2023-03-11T10:45:22.034Z,6.12
2023-03-11T10:47:55.036Z,6.10
2023-03-11T10:50:23.511Z,6.11
2023-03-11T10:53:04.899Z,6.11
2023-03-11T10:55:27.614Z,6.09
2023-03-11T10:58:10.806Z,6.10
2023-03-11T11:00:35.435Z,6.08
2023-03-11T11:03:00.940Z,6.06
2023-03-11T11:05:33.770Z,6.07
2023-03-11T11:08:16.942Z,6.07
2023-03-11T11:10:58.822Z,6.03
2023-03-11T11:13:25.270Z,6.03
2023-03-11T11:15:55.971Z,6.01
2023-03-11T11:18:26.579Z,5.98
2023-03-11T11:21:04.115Z,5.96
2023-03-11T11:23:42.625Z,5.99
2023-03-11T11:26:05.730Z,5.96
2023-03-11T11:28:24.106Z,5.93
2023-03-11T11:30:59.267Z,5.90
2023-03-11T11:33:32.288Z,5.88
2023-03-11T11:35:58.601Z,5.86
2023-03-11T11:38:28.231Z,5.85
2023-03-11T11:40:43.875Z,5.84
2023-03-11T11:43:16.273Z,5.84
2023-03-11T11:45:41.770Z,5.83
2023-03-11T11:48:23.051Z,5.79
2023-03-11T11:51:00.998Z,5.78
2023-03-11T11:53:42.161Z,5.76
2023-03-11T11:56:14.828Z,5.77
2023-03-11T11:58:28.358Z,5.78
2023-03-11T12:00:48.874Z,5.78
2023-03-11T12:03:44.604Z,5.79
2023-03-11T12:06:25.113Z,5.79
2023-03-11T12:08:46.468Z,5.80
2023-03-11T12:11:10.996Z,5.81
2023-03-11T12:14:06.724Z,5.79
2023-03-11T12:16:50.963Z,5.79
2023-03-11T12:19:33.812Z,5.79
2023-03-11T12:22:38.401Z,5.79
2023-03-11T12:25:23.281Z,5.78
2023-03-11T12:27:51.122Z,5.78
2023-03-11T12:30:08.796Z,5.77
2023-03-11T12:32:34.292Z,5.76
2023-03-11T12:35:28.891Z,5.74
2023-03-11T12:37:58.926Z,5.75
2023-03-11T12:41:04.666Z,5.76
2023-03-11T12:43:53.507Z,5.77
2023-03-11T12:46:10.707Z,5.75
2023-03-11T12:48:40.039Z,5.76
2023-03-11T12:50:53.451Z,5.76
2023-03-11T12:53:06.399Z,5.76
2023-03-11T12:55:42.151Z,5.76
2023-03-11T12:58:51.359Z,5.73
2023-03-11T13:01:34.020Z,5.70
2023-03-11T13:04:22.808Z,5.68
2023-03-11T13:07:22.947Z,5.67
2023-03-11T13:09:36.150Z,5.65
2023-03-11T13:12:00.709Z,5.66
2023-03-11T13:14:34.273Z,5.66
2023-03-11T13:17:33.554Z,5.67
2023-03-11T13:20:04.075Z,5.65
2023-03-11T13:22:47.593Z,5.60
2023-03-11T13:25:31.684Z,5.61
2023-03-11T13:27:55.234Z,5.61
2023-03-11T13:30:37.391Z,5.61
2023-03-11T13:33:37.802Z,5.60
2023-03-11T13:36:13.342Z,5.62
2023-03-11T13:38:46.571Z,5.62
2023-03-11T13:41:20.863Z,5.62
2023-03-11T13:43:36.530Z,5.62
2023-03-11T13:45:58.492Z,5.59
2023-03-11T13:48:24.794Z,5.59
2023-03-11T13:51:02.770Z,5.57
2023-03-11T13:53:43.771Z,5.55
2023-03-11T13:56:07.426Z,5.54
2023-03-11T13:58:40.128Z,5.51
2023-03-11T14:01:20.926Z,5.49
2023-03-11T14:03:54.198Z,5.46
2023-03-11T14:06:19.339Z,5.42
2023-03-11T14:08:35.945Z,5.39
2023-03-11T14:10:58.277Z,5.37
2023-03-11T14:13:24.606Z,5.38
2023-03-11T14:15:46.757Z,5.35
2023-03-11T14:18:37.907Z,5.35
2023-03-11T14:21:02.297Z,5.33
2023-03-11T14:23:38.602Z,5.29
2023-03-11T14:26:21.869Z,5.29
2023-03-11T14:28:38.078Z,5.29
2023-03-11T14:31:04.998Z,5.29
2023-03-11T14:33:29.321Z,5.28
2023-03-11T14:35:43.247Z,5.26
2023-03-11T14:37:56.194Z,5.26
2023-03-11T14:40:34.583Z,5.24
2023-03-11T14:42:54.838Z,5.21
2023-03-11T14:45:21.196Z,5.18
2023-03-11T14:47:57.897Z,5.17
2023-03-11T14:50:33.768Z,5.14
2023-03-11T14:53:10.432Z,5.14
2023-03-11T14:55:27.075Z,5.12
2023-03-11T14:58:03.480Z,5.11
2023-03-11T15:00:40.760Z,5.12
2023-03-11T15:03:24.230Z,5.13
2023-03-11T15:05:59.801Z,5.16
2023-03-11T15:08:26.008Z,5.17
2023-03-11T15:11:10.769Z,5.20
2023-03-11T15:13:30.239Z,5.21
2023-03-11T15:16:09.230Z,5.29
2023-03-11T15:18:43.841Z,5.68
2023-03-11T15:21:19.683Z,6.54
2023-03-11T15:23:57.732Z,7.37
2023-03-11T15:26:32.559Z,7.45
2023-03-11T15:29:07.262Z,7.25
2023-03-11T15:31:38.989Z,7.07
2023-03-11T15:34:34.539Z,6.85
2023-03-11T15:37:03.587Z,6.64
2023-03-11T15:39:44.978Z,6.47
2023-03-11T15:42:16.197Z,6.35
2023-03-11T15:44:37.121Z,6.20
2023-03-11T15:46:49.835Z,6.06
2023-03-11T15:49:17.125Z,5.97
2023-03-11T15:51:49.789Z,5.87
2023-03-11T15:54:05.901Z,5.77
2023-03-11T15:56:39.183Z,5.70
2023-03-11T15:58:55.490Z,5.63
2023-03-11T16:01:08.718Z,5.61
2023-03-11T16:03:22.318Z,5.60
2023-03-11T16:05:55.114Z,5.58
2023-03-11T16:08:28.012Z,5.62
2023-03-11T16:11:00.991Z,5.65
2023-03-11T16:13:33.819Z,5.67
2023-03-11T16:15:48.118Z,5.71
2023-03-11T16:18:11.592Z,5.82
2023-03-11T16:20:39.443Z,6.16
2023-03-11T16:23:03.779Z,6.79
2023-03-11T16:25:31.187Z,7.23
2023-03-11T16:27:47.263Z,7.50
2023-03-11T16:30:21.436Z,7.57
2023-03-11T16:32:54.959Z,7.58
2023-03-11T16:35:28.318Z,7.70
2023-03-11T16:37:51.936Z,7.67
2023-03-11T16:40:10.132Z,7.63
2023-03-11T16:42:34.794Z,7.57
2023-03-11T16:45:08.384Z,7.48
2023-03-11T16:47:24.677Z,7.41
2023-03-11T16:49:37.471Z,7.35
2023-03-11T16:51:55.941Z,7.30
2023-03-11T16:54:18.652Z,7.23
2023-03-11T16:56:51.492Z,7.20
2023-03-11T16:59:15.179Z,7.13
2023-03-11T17:01:48.219Z,7.09
2023-03-11T17:04:13.110Z,7.08
2023-03-11T17:06:37.131Z,7.10
2023-03-11T17:08:50.334Z,7.08
2023-03-11T17:11:03.206Z,7.05
2023-03-11T17:13:19.853Z,7.02
2023-03-11T17:16:03.418Z,7.00
2023-03-11T17:18:36.238Z,6.97
2023-03-11T17:21:12.204Z,6.94
2023-03-11T17:23:36.437Z,6.92
2023-03-11T17:26:13.666Z,6.89
2023-03-11T17:28:29.563Z,6.82
2023-03-11T17:31:02.275Z,6.79
2023-03-11T17:33:18.598Z,6.78
2023-03-11T17:35:51.297Z,6.79
2023-03-11T17:38:24.104Z,6.77
2023-03-11T17:40:46.765Z,6.72
2023-03-11T17:43:08.768Z,6.69
2023-03-11T17:45:24.814Z,6.71
2023-03-11T17:47:38.291Z,6.75
2023-03-11T17:50:13.748Z,6.78
2023-03-11T17:52:29.818Z,6.80
2023-03-11T17:54:54.634Z,6.85
2023-03-11T17:57:27.349Z,6.87
2023-03-11T17:59:53.619Z,6.88
2023-03-11T18:02:06.524Z,6.92
2023-03-11T18:04:29.819Z,6.99
2023-03-11T18:06:43.134Z,7.08
2023-03-11T18:09:06.376Z,7.22
2023-03-11T18:11:24.858Z,7.38
2023-03-11T18:13:57.879Z,7.53
2023-03-11T18:16:23.256Z,7.63
2023-03-11T18:18:40.636Z,7.69
2023-03-11T18:21:07.359Z,7.80
2023-03-11T18:23:40.217Z,8.16
2023-03-11T18:26:14.228Z,8.53
2023-03-11T18:28:30.037Z,8.66
2023-03-11T18:31:07.748Z,8.77
2023-03-11T18:33:23.520Z,9.08
2023-03-11T18:35:56.925Z,9.21
2023-03-11T18:38:19.688Z,9.22
2023-03-11T18:40:59.033Z,9.31
2023-03-11T18:43:31.809Z,9.70
2023-03-11T18:46:05.046Z,9.88
2023-03-11T18:48:38.085Z,10.10
2023-03-11T18:51:00.506Z,10.50
2023-03-11T18:53:26.012Z,10.70
2023-03-11T18:55:49.698Z,10.92
2023-03-11T18:58:13.452Z,11.18
2023-03-11T19:00:39.200Z,11.41
2023-03-11T19:03:12.889Z,11.53
2023-03-11T19:05:35.551Z,11.61
2023-03-11T19:07:51.376Z,11.80
2023-03-11T19:10:20.999Z,12.00
2023-03-11T19:12:39.231Z,12.22
2023-03-11T19:15:13.852Z,12.32
2023-03-11T19:17:54.505Z,12.28
2023-03-11T19:20:20.229Z,12.27
2023-03-11T19:22:32.882Z,12.44
2023-03-11T19:25:05.900Z,12.60
2023-03-11T19:27:40.145Z,12.82
2023-03-11T19:29:55.920Z,13.03
2023-03-11T19:32:28.594Z,13.17
2023-03-11T19:34:54.291Z,12.99
2023-03-11T19:37:07.167Z,12.93
2023-03-11T19:39:33.524Z,12.91
2023-03-11T19:42:00.009Z,12.80
2023-03-11T19:44:16.185Z,12.74
2023-03-11T19:46:39.984Z,12.75
2023-03-11T19:49:02.856Z,12.77
2023-03-11T19:51:49.015Z,12.73
2023-03-11T19:54:17.943Z,12.64
2023-03-11T19:56:41.746Z,12.73
2023-03-11T19:59:04.412Z,12.87
2023-03-11T20:01:37.345Z,13.03
2023-03-11T20:04:11.380Z,13.17
2023-03-11T20:06:44.738Z,13.37
2023-03-11T20:08:57.871Z,13.55
2023-03-11T20:11:21.432Z,13.79
2023-03-11T20:13:52.969Z,13.97
2023-03-11T20:16:25.809Z,13.94
2023-03-11T20:18:58.956Z,13.83
2023-03-11T20:21:31.772Z,13.70
2023-03-11T20:23:59.516Z,13.59
2023-03-11T20:26:22.596Z,13.27
2023-03-11T20:28:35.541Z,13.08
2023-03-11T20:30:48.665Z,13.05
2023-03-11T20:33:04.987Z,13.11
2023-03-11T20:35:28.658Z,13.20
2023-03-11T20:37:50.835Z,13.19
2023-03-11T20:40:07.496Z,13.07
2023-03-11T20:42:36.956Z,13.01
2023-03-11T20:44:54.058Z,13.08
2023-03-11T20:47:27.141Z,13.11
2023-03-11T20:49:51.283Z,13.08
2023-03-11T20:52:19.134Z,13.08
2023-03-11T20:54:51.933Z,13.11
2023-03-11T20:57:24.881Z,13.23
2023-03-11T20:59:57.707Z,13.30
2023-03-11T21:02:31.913Z,13.29
2023-03-11T21:05:04.904Z,13.25
2023-03-11T21:07:24.439Z,13.20
2023-03-11T21:09:58.854Z,13.26
2023-03-11T21:12:21.196Z,13.45
2023-03-11T21:14:34.356Z,13.59
2023-03-11T21:16:51.146Z,13.69
2023-03-11T21:19:14.572Z,13.65
2023-03-11T21:21:30.208Z,13.60
2023-03-11T21:24:03.429Z,13.50
2023-03-11T21:26:20.688Z,13.41
2023-03-11T21:28:53.340Z,13.27
2023-03-11T21:31:19.002Z,13.16
2023-03-11T21:33:42.525Z,13.06
2023-03-11T21:36:09.049Z,13.00
2023-03-11T21:38:32.943Z,12.94
2023-03-11T21:41:07.380Z,12.85
2023-03-11T21:43:31.653Z,12.81
2023-03-11T21:46:03.893Z,12.78
2023-03-11T21:48:37.037Z,12.83
2023-03-11T21:50:59.856Z,13.00
2023-03-11T21:53:32.540Z,13.21
2023-03-11T21:56:05.987Z,13.41
2023-03-11T21:58:39.177Z,13.60
2023-03-11T22:01:12.905Z,13.68
2023-03-11T22:03:36.693Z,13.64
2023-03-11T22:06:11.926Z,13.53
2023-03-11T22:08:45.326Z,13.49
2023-03-11T22:11:10.010Z,13.47
2023-03-11T22:13:39.310Z,13.35
2023-03-11T22:16:14.165Z,13.28
2023-03-11T22:18:47.760Z,13.23
2023-03-11T22:21:16.363Z,13.24
2023-03-11T22:23:29.246Z,13.18
2023-03-11T22:25:48.575Z,13.16
2023-03-11T22:28:21.396Z,13.12
2023-03-11T22:30:54.188Z,13.04
2023-03-11T22:33:26.983Z,13.03
2023-03-11T22:36:01.241Z,13.08
2023-03-11T22:38:24.242Z,13.22
2023-03-11T22:40:40.462Z,13.27
2023-03-11T22:43:13.218Z,13.25
2023-03-11T22:45:39.857Z,13.28
2023-03-11T22:48:14.122Z,13.39
2023-03-11T22:50:26.968Z,13.48
2023-03-11T22:52:59.586Z,13.58
2023-03-11T22:55:17.570Z,13.70
2023-03-11T22:57:50.828Z,13.78
2023-03-11T23:00:24.252Z,13.80
2023-03-11T23:02:47.088Z,13.83
2023-03-11T23:05:13.406Z,13.85
2023-03-11T23:07:29.404Z,13.82
2023-03-11T23:09:52.381Z,13.79
2023-03-11T23:12:17.485Z,13.69
2023-03-11T23:14:44.858Z,13.62
2023-03-11T23:17:18.341Z,13.53
2023-03-11T23:19:51.704Z,13.47
2023-03-11T23:22:18.462Z,13.44
2023-03-11T23:24:51.310Z,13.46
2023-03-11T23:27:14.251Z,13.49
2023-03-11T23:29:48.697Z,13.59
2023-03-11T23:32:01.409Z,13.60
2023-03-11T23:34:34.198Z,13.56
2023-03-11T23:37:07.500Z,13.48
2023-03-11T23:39:40.378Z,13.42
2023-03-11T23:42:25.060Z,13.38
2023-03-11T23:44:42.032Z,13.37
2023-03-11T23:47:04.915Z,13.38
2023-03-11T23:49:21.074Z,13.37
2023-03-11T23:51:46.060Z,13.36
2023-03-11T23:53:58.847Z,13.35
2023-03-11T23:56:31.631Z,13.36
2023-03-11T23:58:54.440Z,13.38
